createdAt,value
2022-08-11T00:02:00.754Z,1.35
2022-08-11T00:04:28.604Z,1.50
2022-08-11T00:06:56.625Z,1.65
2022-08-11T00:09:38.985Z,1.52
2022-08-11T00:12:14.946Z,1.45
2022-08-11T00:14:42.742Z,1.92
2022-08-11T00:17:12.260Z,1.52
2022-08-11T00:20:11.969Z,1.70
2022-08-11T00:22:31.092Z,1.52
2022-08-11T00:25:02.826Z,1.50
2022-08-11T00:27:34.547Z,1.60
2022-08-11T00:30:02.582Z,1.80
2022-08-11T00:32:31.171Z,1.73
2022-08-11T00:35:49.928Z,1.60
2022-08-11T00:37:50.508Z,1.73
2022-08-11T00:40:26.040Z,1.40
2022-08-11T00:43:01.829Z,1.67
2022-08-11T00:45:33.986Z,1.48
2022-08-11T00:48:06.356Z,1.60
2022-08-11T00:50:42.925Z,1.60
2022-08-11T00:53:31.940Z,1.48
2022-08-11T00:56:33.536Z,1.40
2022-08-11T00:59:34.882Z,1.70
2022-08-11T01:02:17.374Z,1.70
2022-08-11T01:05:25.488Z,1.55
2022-08-11T01:08:15.204Z,1.52
2022-08-11T01:10:56.638Z,1.38
2022-08-11T01:13:51.975Z,1.98
2022-08-11T01:16:55.308Z,1.73
2022-08-11T01:20:44.918Z,1.40
2022-08-11T01:23:00.731Z,1.63
2022-08-11T01:25:56.811Z,1.90
2022-08-11T01:28:56.599Z,1.50
2022-08-11T01:31:52.618Z,1.50
2022-08-11T01:34:50.969Z,1.70
2022-08-11T01:37:48.785Z,1.40
2022-08-11T01:40:41.300Z,1.65
2022-08-11T01:43:37.617Z,1.70
2022-08-11T01:46:08.287Z,1.80
2022-08-11T01:48:41.888Z,1.48
2022-08-11T01:51:17.498Z,1.67
2022-08-11T01:53:56.489Z,1.60
2022-08-11T01:56:34.951Z,1.70
2022-08-11T01:59:11.594Z,1.73
2022-08-11T02:01:58.174Z,2.08
2022-08-11T02:04:32.395Z,2.00
2022-08-11T02:07:09.527Z,1.75
2022-08-11T02:09:56.934Z,1.65
2022-08-11T02:12:45.477Z,1.83
2022-08-11T02:15:28.491Z,1.77
2022-08-11T02:18:05.704Z,1.60
2022-08-11T02:20:59.541Z,1.80
2022-08-11T02:24:06.112Z,1.50
2022-08-11T02:26:37.476Z,1.55
2022-08-11T02:29:13.197Z,1.70
2022-08-11T02:32:28.825Z,1.67
2022-08-11T02:35:03.091Z,1.58
2022-08-11T02:37:45.069Z,1.70
2022-08-11T02:40:22.981Z,1.60
2022-08-11T02:42:57.067Z,1.77
2022-08-11T02:45:41.129Z,1.60
2022-08-11T02:48:35.240Z,1.70
2022-08-11T02:51:22.222Z,1.80
2022-08-11T02:53:56.339Z,1.90
2022-08-11T02:56:44.431Z,1.67
2022-08-11T02:59:38.928Z,1.58
2022-08-11T03:02:12.961Z,1.92
2022-08-11T03:05:02.106Z,2.20
2022-08-11T03:07:34.902Z,2.53
2022-08-11T03:10:11.599Z,1.85
2022-08-11T03:13:20.035Z,1.88
2022-08-11T03:16:10.376Z,1.75
2022-08-11T03:18:43.913Z,1.63
2022-08-11T03:21:21.085Z,1.70
2022-08-11T03:23:55.210Z,1.88
2022-08-11T03:26:27.204Z,1.83
2022-08-11T03:29:04.365Z,1.85
2022-08-11T03:31:36.844Z,1.85
2022-08-11T03:34:07.822Z,1.63
2022-08-11T03:37:17.348Z,1.77
2022-08-11T03:39:57.127Z,2.35
2022-08-11T03:42:29.998Z,2.00
2022-08-11T03:45:07.181Z,2.50
2022-08-11T03:48:04.286Z,1.90
2022-08-11T03:50:50.723Z,1.70
2022-08-11T03:53:34.246Z,1.80
2022-08-11T03:56:21.072Z,1.70
2022-08-11T03:59:17.552Z,1.80
2022-08-11T04:02:09.877Z,1.70
2022-08-11T04:05:11.180Z,1.88
2022-08-11T04:08:15.594Z,1.63
2022-08-11T04:11:17.150Z,1.88
2022-08-11T04:14:34.625Z,6.07
2022-08-11T04:17:35.542Z,5.68
2022-08-11T04:20:20.345Z,5.03
2022-08-11T04:22:55.903Z,5.05
2022-08-11T04:25:59.505Z,4.72
2022-08-11T04:28:55.800Z,3.45
2022-08-11T04:31:51.566Z,3.65
2022-08-11T04:34:45.381Z,3.38
2022-08-11T04:37:35.201Z,2.47
2022-08-11T04:40:11.663Z,2.88
2022-08-11T04:43:32.270Z,2.40
2022-08-11T04:46:25.165Z,2.42
2022-08-11T04:49:26.208Z,2.47
2022-08-11T04:52:53.054Z,2.80
2022-08-11T04:55:54.800Z,2.40
2022-08-11T04:58:43.105Z,2.65
2022-08-11T05:01:38.720Z,2.60
2022-08-11T05:04:37.607Z,2.40
2022-08-11T05:07:34.324Z,2.30
2022-08-11T05:10:15.254Z,2.70
2022-08-11T05:12:48.023Z,2.92
2022-08-11T05:15:42.767Z,3.08
2022-08-11T05:18:33.543Z,3.30
2022-08-11T05:21:23.807Z,3.60
2022-08-11T05:24:14.937Z,2.65
2022-08-11T05:27:06.896Z,2.55
2022-08-11T05:30:01.100Z,2.55
2022-08-11T05:32:53.645Z,2.22
2022-08-11T05:36:02.189Z,2.55
2022-08-11T05:38:37.281Z,2.80
2022-08-11T05:41:25.861Z,2.70
2022-08-11T05:44:21.762Z,2.80
2022-08-11T05:47:09.660Z,3.20
2022-08-11T05:49:57.801Z,3.05
2022-08-11T05:52:45.272Z,3.25
2022-08-11T05:55:35.072Z,3.30
2022-08-11T05:58:06.152Z,3.13
2022-08-11T06:00:42.837Z,3.00
2022-08-11T06:03:13.492Z,2.95
2022-08-11T06:05:43.539Z,3.10
2022-08-11T06:08:13.344Z,2.50
2022-08-11T06:10:43.540Z,2.67
2022-08-11T06:13:12.079Z,2.60
2022-08-11T06:15:45.925Z,2.65
2022-08-11T06:18:16.223Z,2.25
2022-08-11T06:20:49.720Z,2.28
2022-08-11T06:23:20.348Z,2.08
2022-08-11T06:25:48.486Z,2.20
2022-08-11T06:28:20.757Z,2.30
2022-08-11T06:30:49.811Z,2.15
2022-08-11T06:33:22.637Z,2.78
2022-08-11T06:35:58.569Z,2.40
2022-08-11T06:38:39.793Z,2.83
2022-08-11T06:41:32.098Z,2.20
2022-08-11T06:44:17.195Z,2.55
2022-08-11T06:46:47.605Z,2.40
2022-08-11T06:49:36.020Z,2.05
2022-08-11T06:52:06.147Z,2.28
2022-08-11T06:54:35.635Z,2.85
2022-08-11T06:57:30.531Z,2.50
2022-08-11T07:00:28.892Z,2.50
2022-08-11T07:03:03.981Z,2.88
2022-08-11T07:05:44.511Z,2.70
2022-08-11T07:08:55.401Z,2.38
2022-08-11T07:12:04.732Z,2.45
2022-08-11T07:14:50.764Z,2.53
2022-08-11T07:17:21.685Z,1.98
2022-08-11T07:20:10.650Z,2.35
2022-08-11T07:22:58.208Z,2.10
2022-08-11T07:25:44.080Z,2.25
2022-08-11T07:28:31.714Z,2.33
2022-08-11T07:31:04.424Z,2.00
2022-08-11T07:34:08.491Z,2.00
2022-08-11T07:36:31.725Z,1.85
2022-08-11T07:39:03.084Z,1.92
2022-08-11T07:41:35.251Z,2.08
2022-08-11T07:44:09.674Z,1.85
2022-08-11T07:46:58.064Z,2.00
2022-08-11T07:49:45.326Z,1.83
2022-08-11T07:52:30.399Z,1.85
2022-08-11T07:55:03.031Z,1.77
2022-08-11T07:58:14.606Z,1.88
2022-08-11T08:00:59.291Z,1.95
2022-08-11T08:03:54.239Z,1.90
2022-08-11T08:06:40.943Z,1.77
2022-08-11T08:09:26.865Z,2.00
2022-08-11T08:12:13.929Z,1.92
2022-08-11T08:15:00.974Z,2.35
2022-08-11T08:18:20.449Z,1.95
2022-08-11T08:20:37.909Z,1.88
2022-08-11T08:23:06.564Z,1.63
2022-08-11T08:25:35.621Z,1.55
2022-08-11T08:28:07.500Z,1.92
2022-08-11T08:30:50.753Z,1.77
2022-08-11T08:33:22.170Z,1.98
2022-08-11T08:36:11.062Z,1.73
2022-08-11T08:38:40.678Z,1.75
2022-08-11T08:41:09.109Z,1.80
2022-08-11T08:43:48.500Z,1.63
2022-08-11T08:46:19.800Z,1.80
2022-08-11T08:48:48.216Z,1.70
2022-08-11T08:52:31.941Z,1.88
2022-08-11T08:54:25.363Z,1.80
2022-08-11T08:56:56.172Z,1.80
2022-08-11T08:59:27.330Z,1.83
2022-08-11T09:02:15.357Z,1.63
2022-08-11T09:04:46.174Z,1.85
2022-08-11T09:07:17.654Z,1.65
2022-08-11T09:09:46.589Z,1.50
2022-08-11T09:12:14.481Z,1.50
2022-08-11T09:15:04.235Z,1.45
2022-08-11T09:17:34.630Z,1.70
2022-08-11T09:20:04.784Z,1.45
2022-08-11T09:23:24.239Z,1.77
2022-08-11T09:25:59.748Z,1.80
2022-08-11T09:28:30.536Z,2.03
2022-08-11T09:31:02.525Z,1.67
2022-08-11T09:33:31.470Z,1.50
2022-08-11T09:36:19.508Z,1.70
2022-08-11T09:39:05.907Z,1.77
2022-08-11T09:42:01.300Z,2.05
2022-08-11T09:44:40.232Z,1.90
2022-08-11T09:47:14.953Z,1.70
2022-08-11T09:49:44.502Z,1.63
2022-08-11T09:52:13.735Z,1.80
2022-08-11T09:54:42.300Z,1.98
2022-08-11T09:57:33.474Z,1.80
2022-08-11T10:00:12.880Z,1.65
2022-08-11T10:02:44.525Z,1.80
2022-08-11T10:05:31.181Z,1.60
2022-08-11T10:07:59.448Z,1.63
2022-08-11T10:10:27.205Z,1.58
2022-08-11T10:12:59.695Z,1.75
2022-08-11T10:15:37.910Z,1.75
2022-08-11T10:18:27.994Z,1.58
2022-08-11T10:20:59.224Z,2.03
2022-08-11T10:24:01.033Z,2.00
2022-08-11T10:26:55.301Z,1.98
2022-08-11T10:29:45.381Z,1.88
2022-08-11T10:32:46.317Z,1.80
2022-08-11T10:35:28.508Z,1.67
2022-08-11T10:38:06.744Z,1.83
2022-08-11T10:40:38.915Z,1.80
2022-08-11T10:43:07.953Z,1.95
2022-08-11T10:45:54.882Z,1.55
2022-08-11T10:48:23.440Z,1.85
2022-08-11T10:51:10.487Z,1.30
2022-08-11T10:53:58.444Z,1.52
2022-08-11T10:56:46.549Z,1.50
2022-08-11T10:59:15.548Z,1.52
2022-08-11T11:01:44.734Z,1.80
2022-08-11T11:04:15.765Z,1.70
2022-08-11T11:06:51.913Z,1.63
2022-08-11T11:09:22.865Z,1.67
2022-08-11T11:12:10.113Z,1.70
2022-08-11T11:14:59.052Z,1.70
2022-08-11T11:17:47.381Z,1.90
2022-08-11T11:20:36.224Z,1.60
2022-08-11T11:23:12.612Z,1.77
2022-08-11T11:26:11.179Z,1.40
2022-08-11T11:29:22.320Z,1.60
2022-08-11T11:32:00.566Z,1.45
2022-08-11T11:34:52.960Z,1.42
2022-08-11T11:37:23.868Z,1.55
2022-08-11T11:39:53.914Z,1.50
2022-08-11T11:42:22.407Z,1.70
2022-08-11T11:44:53.094Z,1.40
2022-08-11T11:47:23.909Z,1.60
2022-08-11T11:49:51.757Z,1.60
2022-08-11T11:52:21.770Z,1.80
2022-08-11T11:54:51.820Z,1.67
2022-08-11T11:57:39.763Z,1.60
2022-08-11T12:00:33.839Z,1.75
2022-08-11T12:03:04.935Z,1.80
2022-08-11T12:05:33.271Z,1.58
2022-08-11T12:08:15.197Z,1.58
2022-08-11T12:10:47.994Z,1.48
2022-08-11T12:13:35.940Z,1.52
2022-08-11T12:16:34.148Z,1.60
2022-08-11T12:18:53.998Z,1.63
2022-08-11T12:21:22.032Z,1.60
2022-08-11T12:24:08.553Z,1.38
2022-08-11T12:27:15.750Z,1.60
2022-08-11T12:29:54.856Z,1.48
2022-08-11T12:32:24.969Z,1.30
2022-08-11T12:34:53.506Z,1.52
2022-08-11T12:37:24.616Z,1.80
2022-08-11T12:40:42.619Z,1.63
2022-08-11T12:43:21.761Z,1.30
2022-08-11T12:45:53.998Z,1.40
2022-08-11T12:48:58.297Z,1.50
2022-08-11T12:52:13.915Z,1.50
2022-08-11T12:54:45.972Z,1.42
2022-08-11T12:57:36.882Z,1.30
2022-08-11T13:00:25.478Z,1.30
2022-08-11T13:03:12.641Z,1.50
2022-08-11T13:05:45.179Z,1.60
2022-08-11T13:08:14.936Z,1.50
2022-08-11T13:11:00.889Z,1.40
2022-08-11T13:13:52.984Z,1.60
2022-08-11T13:16:17.385Z,1.20
2022-08-11T13:18:46.628Z,1.30
2022-08-11T13:21:20.025Z,1.20
2022-08-11T13:24:00.792Z,1.27
2022-08-11T13:26:43.488Z,1.30
2022-08-11T13:29:20.059Z,1.65
2022-08-11T13:31:48.285Z,1.33
2022-08-11T13:34:18.127Z,1.23
2022-08-11T13:36:48.889Z,1.30
2022-08-11T13:39:17.350Z,1.45
2022-08-11T13:41:47.647Z,1.90
2022-08-11T13:44:23.106Z,1.70
2022-08-11T13:46:53.066Z,1.20
2022-08-11T13:49:23.102Z,1.10
2022-08-11T13:51:51.490Z,1.10
2022-08-11T13:54:20.858Z,1.20
2022-08-11T13:56:50.040Z,1.08
2022-08-11T13:59:23.845Z,1.30
2022-08-11T14:02:19.406Z,1.30
2022-08-11T14:04:50.880Z,1.10
2022-08-11T14:07:22.181Z,1.02
2022-08-11T14:09:56.431Z,1.17
2022-08-11T14:12:44.328Z,1.20
2022-08-11T14:15:20.003Z,0.93
2022-08-11T14:17:51.972Z,1.25
2022-08-11T14:20:39.872Z,1.13
2022-08-11T14:23:10.735Z,1.10
2022-08-11T14:25:59.697Z,1.10
2022-08-11T14:28:32.697Z,1.20
2022-08-11T14:31:05.200Z,1.00
2022-08-11T14:33:58.857Z,6.13
2022-08-11T14:36:23.959Z,3.42
2022-08-11T14:38:53.380Z,2.45
2022-08-11T14:42:11.356Z,1.30
2022-08-11T14:44:44.648Z,0.98
2022-08-11T14:47:24.530Z,0.98
2022-08-11T14:50:02.559Z,1.30
2022-08-11T14:52:45.653Z,1.25
2022-08-11T14:55:32.714Z,0.93
2022-08-11T14:58:03.052Z,1.20
2022-08-11T15:00:32.248Z,1.00
2022-08-11T15:03:12.119Z,1.10
2022-08-11T15:05:54.191Z,1.30
2022-08-11T15:08:46.090Z,1.10
2022-08-11T15:11:29.430Z,0.80
2022-08-11T15:13:57.632Z,1.00
2022-08-11T15:16:40.358Z,1.00
2022-08-11T15:19:08.489Z,1.00
2022-08-11T15:21:53.952Z,0.95
2022-08-11T15:24:24.115Z,1.10
2022-08-11T15:27:13.604Z,1.00
2022-08-11T15:30:00.410Z,1.10
2022-08-11T15:32:49.033Z,0.93
2022-08-11T15:35:33.696Z,1.10
2022-08-11T15:38:08.239Z,1.00
2022-08-11T15:40:57.805Z,0.90
2022-08-11T15:43:45.216Z,1.00
2022-08-11T15:46:15.975Z,0.98
2022-08-11T15:48:46.141Z,1.13
2022-08-11T15:51:25.035Z,1.20
2022-08-11T15:53:57.071Z,1.00
2022-08-11T15:56:29.136Z,1.23
2022-08-11T15:59:42.423Z,1.15
2022-08-11T16:02:22.710Z,1.05
2022-08-11T16:04:51.200Z,1.17
2022-08-11T16:07:26.661Z,0.93
2022-08-11T16:10:00.545Z,1.10
2022-08-11T16:12:32.017Z,1.00
2022-08-11T16:15:21.865Z,1.00
2022-08-11T16:17:51.828Z,0.90
2022-08-11T16:20:22.289Z,1.10
2022-08-11T16:23:01.512Z,1.02
2022-08-11T16:26:30.362Z,1.30
2022-08-11T16:28:21.514Z,1.23
2022-08-11T16:30:49.635Z,1.02
2022-08-11T16:33:48.286Z,1.30
2022-08-11T16:36:29.780Z,1.17
2022-08-11T16:38:58.969Z,4.47
2022-08-11T16:41:47.462Z,1.10
2022-08-11T16:44:37.622Z,1.00
2022-08-11T16:47:07.143Z,1.13
2022-08-11T16:49:37.156Z,1.33
2022-08-11T16:52:05.841Z,1.05
2022-08-11T16:54:34.293Z,1.15
2022-08-11T16:57:20.145Z,1.00
2022-08-11T16:59:50.649Z,1.30
2022-08-11T17:02:42.134Z,1.17
2022-08-11T17:05:30.730Z,1.35
2022-08-11T17:08:18.220Z,1.10
2022-08-11T17:11:07.803Z,1.20
2022-08-11T17:13:38.205Z,1.00
2022-08-11T17:16:11.442Z,0.90
2022-08-11T17:18:47.318Z,1.30
2022-08-11T17:21:18.721Z,1.05
2022-08-11T17:23:52.511Z,1.15
2022-08-11T17:26:23.132Z,1.52
2022-08-11T17:28:56.196Z,1.10
2022-08-11T17:31:43.505Z,1.00
2022-08-11T17:34:29.845Z,0.98
2022-08-11T17:36:57.822Z,1.40
2022-08-11T17:39:30.041Z,1.20
2022-08-11T17:42:16.681Z,1.05
2022-08-11T17:45:02.613Z,1.08
2022-08-11T17:47:49.265Z,1.25
2022-08-11T17:50:18.384Z,0.90
2022-08-11T17:53:06.230Z,0.95
2022-08-11T17:55:53.899Z,1.00
2022-08-11T17:58:39.978Z,0.85
2022-08-11T18:01:10.038Z,0.95
2022-08-11T18:03:39.940Z,1.00
2022-08-11T18:06:12.833Z,1.08
2022-08-11T18:09:02.479Z,1.10
2022-08-11T18:12:10.057Z,1.00
2022-08-11T18:14:57.698Z,1.05
2022-08-11T18:17:43.193Z,1.15
2022-08-11T18:20:29.997Z,1.23
2022-08-11T18:23:16.892Z,1.23
2022-08-11T18:26:07.491Z,1.10
2022-08-11T18:28:57.723Z,1.10
2022-08-11T18:31:43.752Z,1.05
2022-08-11T18:34:32.873Z,1.00
2022-08-11T18:37:24.719Z,1.20
2022-08-11T18:40:17.580Z,1.13
2022-08-11T18:43:05.739Z,1.20
2022-08-11T18:45:56.498Z,1.27
2022-08-11T18:48:54.113Z,1.23
2022-08-11T18:51:41.085Z,0.98
2022-08-11T18:54:29.184Z,1.23
2022-08-11T18:57:18.513Z,1.50
2022-08-11T19:00:04.742Z,1.42
2022-08-11T19:02:50.961Z,1.30
2022-08-11T19:06:37.072Z,1.48
2022-08-11T19:08:47.107Z,1.10
2022-08-11T19:11:34.595Z,1.30
2022-08-11T19:14:28.966Z,1.50
2022-08-11T19:17:15.343Z,1.42
2022-08-11T19:20:25.707Z,1.10
2022-08-11T19:23:12.175Z,1.30
2022-08-11T19:25:58.394Z,1.13
2022-08-11T19:28:45.508Z,1.35
2022-08-11T19:31:31.057Z,1.38
2022-08-11T19:34:17.097Z,1.30
2022-08-11T19:37:03.908Z,1.48
2022-08-11T19:39:50.036Z,1.52
2022-08-11T19:42:35.525Z,1.95
2022-08-11T19:45:23.314Z,1.30
2022-08-11T19:48:30.848Z,1.13
2022-08-11T19:51:14.324Z,1.27
2022-08-11T19:54:00.789Z,1.10
2022-08-11T19:56:46.352Z,1.33
2022-08-11T19:59:31.984Z,1.33
2022-08-11T20:02:18.752Z,1.40
2022-08-11T20:05:04.566Z,1.50
2022-08-11T20:07:50.915Z,1.00
2022-08-11T20:10:39.258Z,1.10
2022-08-11T20:13:26.594Z,1.30
2022-08-11T20:16:13.851Z,1.25
2022-08-11T20:19:01.037Z,1.17
2022-08-11T20:21:48.784Z,1.20
2022-08-11T20:24:36.505Z,1.27
2022-08-11T20:27:24.577Z,1.30
2022-08-11T20:30:11.711Z,1.10
2022-08-11T20:32:58.545Z,1.20
2022-08-11T20:35:45.299Z,1.27
2022-08-11T20:38:32.414Z,1.42
2022-08-11T20:41:19.179Z,1.33
2022-08-11T20:44:09.196Z,1.08
2022-08-11T20:46:56.967Z,1.48
2022-08-11T20:49:50.354Z,1.15
2022-08-11T20:52:47.535Z,1.13
2022-08-11T20:55:46.420Z,1.40
2022-08-11T21:01:44.726Z,1.20
2022-08-11T21:04:30.788Z,1.23
2022-08-11T21:07:27.600Z,1.40
2022-08-11T21:10:23.688Z,1.20
2022-08-11T21:13:25.706Z,1.08
2022-08-11T21:16:26.381Z,1.38
2022-08-11T21:19:15.981Z,1.38
2022-08-11T21:22:04.536Z,1.23
2022-08-11T21:24:50.913Z,1.25
2022-08-11T21:27:38.974Z,1.30
2022-08-11T21:30:25.781Z,1.38
2022-08-11T21:33:11.639Z,1.60
2022-08-11T21:35:57.029Z,1.40
2022-08-11T21:38:42.750Z,1.20
2022-08-11T21:41:28.727Z,1.30
2022-08-11T21:44:16.040Z,1.17
2022-08-11T21:47:03.028Z,1.40
2022-08-11T21:49:49.144Z,1.20
2022-08-11T21:52:34.912Z,1.08
2022-08-11T21:55:21.871Z,1.60
2022-08-11T21:58:07.237Z,1.30
2022-08-11T22:00:53.872Z,1.25
2022-08-11T22:03:49.809Z,1.10
2022-08-11T22:06:35.859Z,1.40
2022-08-11T22:09:23.517Z,1.40
2022-08-11T22:12:33.791Z,1.33
2022-08-11T22:15:14.701Z,1.40
2022-08-11T22:18:01.797Z,1.20
2022-08-11T22:20:48.207Z,1.42
2022-08-11T22:23:35.976Z,1.50
2022-08-11T22:26:22.285Z,1.40
2022-08-11T22:29:07.841Z,1.30
2022-08-11T22:31:53.998Z,1.55
2022-08-11T22:34:51.194Z,1.30
2022-08-11T22:37:39.243Z,1.20
2022-08-11T22:40:26.156Z,1.15
2022-08-11T22:43:11.439Z,1.33
2022-08-11T22:45:56.616Z,1.40
2022-08-11T22:48:44.142Z,1.35
2022-08-11T22:51:31.793Z,1.70
2022-08-11T22:54:18.452Z,1.42
2022-08-11T22:57:04.101Z,1.50
2022-08-11T22:59:49.628Z,1.70
2022-08-11T23:02:35.093Z,1.75
2022-08-11T23:05:20.617Z,1.40
2022-08-11T23:08:07.364Z,1.60
2022-08-11T23:10:52.797Z,1.60
2022-08-11T23:13:38.756Z,1.80
2022-08-11T23:16:24.987Z,1.40
2022-08-11T23:19:10.238Z,1.65
2022-08-11T23:21:56.036Z,1.40
2022-08-11T23:24:43.964Z,1.45
2022-08-11T23:27:29.310Z,1.33
2022-08-11T23:30:17.111Z,1.35
2022-08-11T23:33:05.499Z,1.60
2022-08-11T23:35:56.484Z,1.33
2022-08-11T23:38:43.405Z,1.60
2022-08-11T23:41:32.168Z,1.60
2022-08-11T23:44:17.862Z,1.58
2022-08-11T23:47:03.600Z,1.30
2022-08-11T23:49:48.750Z,1.50
2022-08-11T23:52:35.064Z,1.60
2022-08-11T23:55:22.804Z,1.80
2022-08-11T23:58:09.442Z,1.40
